Aérodrome :
LOGIN :

S'inscrire | Disclaimer

   EN    FR    IT 

 










Légende :    VFR   VFR Marginal   IFR   IFR Intensif   IFR Très Intensif
Visi : 
Plafond : 
>= 8 km
>= 3000ft
5 à 8 km
1000 à 3000 ft
1500m à 5 km
500 à 1000 ft
800 à 1500m
200 à 500 ft
< 800m
< 200 ft
Symboles :   Orages  Brouillard  Fortes neiges  Fortes précipitations  Vent > 20 kt
SIGMETs :   Divers  Orages  Givrage  Turbulence  Onde Orograph.  Cendres Volcan.






- Altitude de l'aérodrome : 32 ft
- Code IATA : LKZ


EGUL - RAF Lakenheath

METARs EXPIRÉS :
  • 221256Z AUTO M M M CLR M M RMK AO2 SLPNO RVRNO PNO VISNO RWY06 CHINO RWY06 $

TAF AMD TAF EGUL
Valide du 21 à 16h jusqu'au 22 à 20h UTC


211625Z 2116/2220 28012KT 9999 BKN025 620253 QNH3055INS
TEMPO 2117/2121 BKN015 610154
BECMG 2120/2121 28006KT 6000 BR BKN015 BKN030 QNH3059INS
BECMG 2203/2204 31006KT 6000 BR BKN015 OVC025 QNH3060INS TX05/2122Z TN03/2206Z LAST NO AMDS AFT 2116 NEXT 2306



MET'MAP, la Météo Aéronautique d'un coup d'oeil ! - Copyright ORBIFLY Décembre 2007 - Disclaimer

ORBIFLY MET'MAP TEAM :

Programmation & Développement : Alexandra Zaïnal
Sur une idée originale de : Baudouin d'Aumeries
Assistance à la programmation : Marc-Olivier Méhu
Soutien technique & logistique : Manuel Goepfert

Contact : metmap@orbifly.com




SOURCES & CREDITS :

   NOAA